Time;durP1;ratioP1;P1;durP2;ratioP2;P2;SDS_P1;SDS_P2;PMS_P1;PMS_P2;Temp;Humidity;BMP_temperature;BMP_pressure;BME280_temperature;BME280_humidity;BME280_pressure;Samples;Min_cycle;Max_cycle;Signal;HPM_P1;HPM_P2
2022/11/28 05:02:06;;;;;;;7.53;5.03;;;5.70;99.90;;;;;;5280575;23;20503;-73
2022/11/28 05:04:35;;;;;;;6.33;5.73;;;5.80;99.90;;;;;;4987600;28;20463;-73
2022/11/28 05:07:03;;;;;;;7.00;6.10;;;5.80;99.90;;;;;;4987447;28;20464;-73
2022/11/28 05:09:30;;;;;;;9.17;6.23;;;5.80;99.90;;;;;;4987953;28;20448;-73
2022/11/28 05:11:57;;;;;;;7.33;5.10;;;5.80;99.90;;;;;;4986648;28;20482;-73
2022/11/28 05:14:24;;;;;;;8.60;5.87;;;5.80;99.90;;;;;;4987301;28;20491;-73
2022/11/28 05:16:50;;;;;;;8.20;6.77;;;5.90;99.90;;;;;;4987864;28;20467;-73
2022/11/28 05:19:19;;;;;;;8.30;6.13;;;5.90;99.90;;;;;;4986042;28;20466;-73
2022/11/28 05:21:46;;;;;;;8.43;7.00;;;5.80;99.90;;;;;;4977003;28;20484;-73
2022/11/28 05:24:13;;;;;;;8.57;6.70;;;5.80;99.90;;;;;;4980349;28;20472;-73
2022/11/28 05:26:39;;;;;;;7.60;5.70;;;5.80;99.90;;;;;;4987032;28;20463;-73
2022/11/28 05:29:06;;;;;;;7.03;5.87;;;5.70;99.90;;;;;;4987264;28;20451;-73
2022/11/28 05:31:33;;;;;;;8.87;6.33;;;5.60;99.90;;;;;;4976384;28;20477;-73
2022/11/28 05:34:00;;;;;;;7.80;6.00;;;5.50;99.90;;;;;;4967633;28;21070;-73
2022/11/28 05:36:28;;;;;;;8.53;6.40;;;5.50;99.90;;;;;;4967675;28;20983;-73
2022/11/28 05:38:55;;;;;;;6.77;5.60;;;5.50;99.90;;;;;;4967669;28;20457;-73
2022/11/28 05:41:25;;;;;;;6.80;5.03;;;5.50;99.90;;;;;;4967690;28;20477;-73
2022/11/28 05:43:52;;;;;;;9.87;5.70;;;5.40;99.90;;;;;;4966362;28;20459;-73
2022/11/28 05:46:19;;;;;;;6.43;5.30;;;5.50;99.90;;;;;;4967858;28;20460;-73
2022/11/28 05:48:46;;;;;;;6.47;5.30;;;5.50;99.90;;;;;;4967631;28;20464;-73
2022/11/28 05:51:13;;;;;;;8.40;4.90;;;5.50;99.90;;;;;;4986652;28;20476;-73
2022/11/28 05:53:42;;;;;;;6.70;5.80;;;5.50;99.90;;;;;;4967102;28;20497;-73
2022/11/28 05:56:09;;;;;;;6.77;5.73;;;5.50;99.90;;;;;;4967350;28;20520;-73
2022/11/28 05:58:36;;;;;;;8.70;5.90;;;5.60;99.90;;;;;;4967321;28;20465;-73
2022/11/28 06:01:10;;;;;;;6.70;5.20;;;5.60;99.90;;;;;;4966699;28;20490;-77
2022/11/28 06:03:37;;;;;;;7.67;5.20;;;5.60;99.90;;;;;;4966179;28;20445;-76
2022/11/28 06:06:04;;;;;;;9.77;5.60;;;5.70;99.90;;;;;;4966401;28;20464;-76
2022/11/28 06:08:30;;;;;;;7.73;5.53;;;5.70;99.90;;;;;;4966763;28;20455;-76
2022/11/28 06:10:59;;;;;;;8.23;6.07;;;5.70;99.90;;;;;;4966612;28;20492;-76
2022/11/28 06:13:26;;;;;;;7.83;6.10;;;5.70;99.90;;;;;;4965816;28;20524;-76
2022/11/28 06:15:53;;;;;;;9.63;6.77;;;5.80;99.90;;;;;;4966396;28;20971;-76
2022/11/28 06:18:20;;;;;;;9.73;6.80;;;5.80;99.90;;;;;;4967289;28;20456;-76
2022/11/28 06:20:47;;;;;;;7.80;6.10;;;5.80;99.90;;;;;;4970861;28;20477;-76
2022/11/28 06:23:13;;;;;;;7.93;5.67;;;5.70;99.90;;;;;;4984923;28;20466;-76
2022/11/28 06:25:40;;;;;;;7.97;6.47;;;5.80;99.90;;;;;;4985040;28;20460;-76
2022/11/28 06:28:09;;;;;;;10.40;7.40;;;5.80;99.90;;;;;;4985564;28;20520;-76
2022/11/28 06:30:35;;;;;;;10.83;7.43;;;5.80;99.90;;;;;;4985789;28;20484;-76
2022/11/28 06:33:02;;;;;;;8.60;6.20;;;5.60;99.90;;;;;;4984956;28;20537;-76
2022/11/28 06:35:29;;;;;;;7.93;6.10;;;5.60;99.90;;;;;;4985298;28;20958;-76
2022/11/28 06:37:56;;;;;;;7.60;5.20;;;5.60;99.90;;;;;;4987339;28;20487;-74
2022/11/28 06:40:22;;;;;;;9.80;6.93;;;5.60;99.90;;;;;;4987270;28;20470;-75
2022/11/28 06:42:49;;;;;;;8.77;6.73;;;5.60;99.90;;;;;;4985226;28;20459;-75
2022/11/28 06:45:18;;;;;;;8.23;6.50;;;5.60;99.90;;;;;;4985356;28;20486;-75
2022/11/28 06:47:45;;;;;;;18.37;10.60;;;5.70;99.90;;;;;;4986148;28;20474;-74
2022/11/28 06:50:11;;;;;;;12.83;9.50;;;5.60;99.90;;;;;;4985847;28;20963;-75
2022/11/28 06:52:38;;;;;;;16.57;12.10;;;5.70;99.90;;;;;;4984904;28;20456;-75
2022/11/28 06:55:05;;;;;;;14.00;9.20;;;5.70;99.90;;;;;;4985611;28;20535;-75
2022/11/28 06:57:32;;;;;;;12.43;8.77;;;5.70;99.90;;;;;;4990065;28;20459;-75
2022/11/28 06:59:59;;;;;;;10.10;7.60;;;5.70;99.90;;;;;;4990200;28;20463;-75
2022/11/28 07:02:27;;;;;;;9.00;6.60;;;5.70;99.90;;;;;;4988967;28;20500;-75
2022/11/28 07:04:54;;;;;;;8.30;6.00;;;5.70;99.90;;;;;;4989988;28;21456;-74
2022/11/28 07:07:21;;;;;;;8.30;6.43;;;5.70;99.90;;;;;;4990174;28;20468;-75
2022/11/28 07:09:47;;;;;;;7.90;6.03;;;5.70;99.90;;;;;;4990148;28;20470;-75
2022/11/28 07:12:14;;;;;;;9.97;6.60;;;5.60;99.90;;;;;;4989430;28;20485;-74
2022/11/28 07:14:41;;;;;;;9.43;6.60;;;5.70;99.90;;;;;;4990008;28;20503;-75
2022/11/28 07:17:08;;;;;;;9.00;6.37;;;5.70;99.90;;;;;;4990068;28;20456;-75
2022/11/28 07:19:36;;;;;;;9.63;5.70;;;5.70;99.90;;;;;;4989971;28;20459;-75
2022/11/28 07:22:03;;;;;;;9.90;6.40;;;5.60;99.90;;;;;;4989013;28;20484;-75
2022/11/28 07:24:30;;;;;;;11.70;6.53;;;5.70;99.90;;;;;;4989681;28;20462;-74
2022/11/28 07:26:56;;;;;;;7.77;6.47;;;5.60;99.90;;;;;;4989126;28;20844;-74
2022/11/28 07:29:23;;;;;;;10.77;6.67;;;5.60;99.90;;;;;;4988551;28;21271;-74
2022/11/28 07:31:50;;;;;;;10.17;7.93;;;5.60;99.90;;;;;;4988840;28;20472;-74
2022/11/28 07:34:17;;;;;;;9.70;6.13;;;5.60;99.90;;;;;;4989727;28;20487;-75
2022/11/28 07:36:45;;;;;;;6.53;5.43;;;5.60;99.90;;;;;;4989657;28;20459;-74
2022/11/28 07:39:16;;;;;;;10.40;7.50;;;5.60;99.90;;;;;;4989606;28;20463;-74
2022/11/28 07:41:43;;;;;;;10.40;6.97;;;5.60;99.90;;;;;;4988645;28;20487;-74
2022/11/28 07:44:10;;;;;;;8.80;6.77;;;5.60;99.90;;;;;;4989552;28;20470;-74
2022/11/28 07:46:37;;;;;;;8.67;6.47;;;5.50;99.90;;;;;;4989681;28;20864;-74
2022/11/28 07:49:04;;;;;;;8.17;6.67;;;5.50;99.90;;;;;;4989314;28;20465;-74
2022/11/28 07:51:33;;;;;;;15.23;7.67;;;5.50;99.90;;;;;;4988762;28;20486;-74
2022/11/28 07:54:01;;;;;;;11.47;7.50;;;5.50;99.90;;;;;;4988737;28;20495;-74
2022/11/28 07:56:30;;;;;;;12.40;7.93;;;5.60;99.90;;;;;;4988909;28;20974;-74
2022/11/28 07:58:58;;;;;;;9.00;6.30;;;5.70;99.90;;;;;;4989319;28;20838;-74
2022/11/28 08:01:27;;;;;;;9.30;7.00;;;5.60;99.90;;;;;;4969320;28;20484;-74
2022/11/28 08:03:55;;;;;;;10.80;6.90;;;5.50;99.90;;;;;;4969139;28;20464;-74
2022/11/28 08:06:24;;;;;;;10.97;6.83;;;5.50;99.90;;;;;;4969084;28;20472;-74
2022/11/28 08:08:52;;;;;;;14.80;8.97;;;5.50;99.90;;;;;;4969156;28;20460;-74
2022/11/28 08:11:22;;;;;;;8.00;6.70;;;5.60;99.90;;;;;;4969553;28;20477;-74
2022/11/28 08:13:49;;;;;;;11.17;7.00;;;5.60;99.90;;;;;;4968684;28;20583;-75
2022/11/28 08:16:18;;;;;;;7.80;6.30;;;5.70;99.90;;;;;;4969374;28;20457;-75
2022/11/28 08:18:46;;;;;;;8.87;6.70;;;5.70;99.90;;;;;;4969577;28;20467;-75
2022/11/28 08:21:15;;;;;;;17.40;9.90;;;5.70;99.90;;;;;;4969412;28;20477;-75
2022/11/28 08:23:42;;;;;;;13.87;8.83;;;5.70;99.90;;;;;;4968377;28;20456;-74
2022/11/28 08:26:12;;;;;;;16.00;8.90;;;5.70;99.90;;;;;;4969298;28;20550;-74
2022/11/28 08:28:40;;;;;;;15.27;8.27;;;5.70;99.90;;;;;;4969168;28;20492;-74
2022/11/28 08:31:13;;;;;;;12.50;8.53;;;5.60;99.90;;;;;;4968931;28;20481;-75
2022/11/28 08:33:40;;;;;;;10.13;8.10;;;5.60;99.90;;;;;;4968222;28;20577;-74
2022/11/28 08:36:08;;;;;;;11.40;8.20;;;5.60;99.90;;;;;;4969090;28;20463;-74
2022/11/28 08:38:35;;;;;;;14.37;8.50;;;5.60;99.90;;;;;;4968574;28;20464;-75
2022/11/28 08:41:02;;;;;;;11.73;8.23;;;5.70;99.90;;;;;;4969440;28;20550;-75
2022/11/28 08:43:29;;;;;;;11.47;7.30;;;5.70;99.90;;;;;;4968889;28;20468;-75
2022/11/28 08:45:57;;;;;;;12.33;6.87;;;5.70;99.90;;;;;;4967180;28;21007;-75
2022/11/28 08:48:23;;;;;;;9.87;7.60;;;5.80;99.90;;;;;;4968555;28;20967;-75
2022/11/28 08:50:50;;;;;;;12.90;8.07;;;5.80;99.90;;;;;;4968829;28;20508;-75
2022/11/28 08:53:17;;;;;;;12.47;6.87;;;5.80;99.90;;;;;;4968114;28;20847;-75
2022/11/28 08:55:44;;;;;;;11.83;7.50;;;5.80;99.90;;;;;;4968446;28;20449;-75
2022/11/28 08:58:11;;;;;;;10.53;7.40;;;5.90;99.90;;;;;;4969584;28;20475;-75
2022/11/28 09:00:38;;;;;;;13.03;9.00;;;5.90;99.90;;;;;;4968689;28;21019;-75
2022/11/28 09:03:06;;;;;;;13.50;8.00;;;5.90;99.90;;;;;;4968353;28;20441;-75
2022/11/28 09:05:33;;;;;;;10.87;7.27;;;6.00;99.90;;;;;;4967528;28;20542;-75
2022/11/28 09:08:00;;;;;;;10.57;7.00;;;6.00;99.90;;;;;;4968728;28;20456;-75
2022/11/28 09:10:27;;;;;;;14.03;8.10;;;6.00;99.90;;;;;;4969101;28;20456;-75
2022/11/28 09:12:54;;;;;;;15.27;10.47;;;6.00;99.90;;;;;;4967658;28;20456;-75
2022/11/28 09:15:20;;;;;;;22.73;12.57;;;6.10;99.90;;;;;;4968258;28;20940;-75
2022/11/28 09:17:47;;;;;;;14.63;9.50;;;6.10;99.90;;;;;;4968097;28;20464;-75
2022/11/28 09:20:16;;;;;;;11.60;7.70;;;6.20;99.90;;;;;;4968231;28;20471;-75
2022/11/28 09:22:43;;;;;;;12.10;8.27;;;6.30;99.90;;;;;;4967760;28;20577;-75
2022/11/28 09:25:10;;;;;;;11.20;7.40;;;6.30;99.90;;;;;;4968546;28;20467;-75
2022/11/28 09:27:37;;;;;;;10.90;7.40;;;6.40;99.90;;;;;;4968055;28;21219;-75
2022/11/28 09:30:04;;;;;;;11.50;6.83;;;6.40;99.90;;;;;;4967981;28;21088;-75
2022/11/28 09:32:31;;;;;;;7.80;6.30;;;6.40;99.90;;;;;;4967301;28;20480;-75
2022/11/28 09:34:58;;;;;;;15.83;10.83;;;6.40;99.90;;;;;;4967923;28;20493;-75
2022/11/28 09:37:27;;;;;;;10.40;7.10;;;6.40;99.90;;;;;;4968088;28;20471;-75
2022/11/28 09:39:54;;;;;;;9.93;6.33;;;6.40;99.90;;;;;;4968357;28;20461;-75
2022/11/28 09:42:27;;;;;;;9.67;6.40;;;6.40;99.90;;;;;;4967202;28;20476;-75
2022/11/28 09:44:59;;;;;;;13.50;6.40;;;6.40;99.90;;;;;;4968023;28;20949;-75
2022/11/28 09:47:28;;;;;;;10.77;6.60;;;6.40;99.90;;;;;;4968018;28;21029;-75
2022/11/28 09:49:58;;;;;;;9.07;6.97;;;6.40;99.90;;;;;;4967999;28;20465;-74
2022/11/28 09:52:36;;;;;;;12.00;7.53;;;6.40;99.90;;;;;;4966925;28;20996;-75
2022/11/28 09:55:14;;;;;;;8.50;5.37;;;6.40;99.90;;;;;;4967566;28;20587;-75
2022/11/28 09:57:45;;;;;;;7.80;6.20;;;6.40;99.90;;;;;;4967736;28;20451;-75
2022/11/28 10:00:20;;;;;;;8.93;6.17;;;6.40;99.90;;;;;;4967659;28;20491;-75
2022/11/28 10:03:15;;;;;;;8.77;5.90;;;6.50;99.90;;;;;;4967045;28;20487;-75
2022/11/28 10:05:50;;;;;;;11.23;6.73;;;6.60;99.90;;;;;;4967088;28;20504;-75
2022/11/28 10:08:25;;;;;;;8.90;6.13;;;6.50;99.90;;;;;;4967496;28;20452;-75
2022/11/28 10:11:02;;;;;;;6.87;6.00;;;6.60;99.90;;;;;;4967302;28;20477;-75
2022/11/28 10:13:41;;;;;;;5.33;4.50;;;6.50;99.90;;;;;;4966744;28;20452;-75
2022/11/28 10:16:16;;;;;;;7.60;5.17;;;6.50;99.90;;;;;;4967496;28;20917;-76
2022/11/28 10:18:47;;;;;;;17.27;9.80;;;6.60;99.90;;;;;;4968473;28;20535;-75
2022/11/28 10:21:24;;;;;;;11.03;7.33;;;6.70;99.90;;;;;;4967991;28;20488;-75
2022/11/28 10:23:56;;;;;;;9.80;6.60;;;6.70;99.90;;;;;;4967836;28;20460;-75
2022/11/28 10:26:30;;;;;;;9.70;6.80;;;6.80;99.90;;;;;;4967743;28;20796;-75
2022/11/28 10:29:02;;;;;;;14.37;7.80;;;6.90;99.90;;;;;;4967572;28;20449;-76
2022/11/28 10:31:34;;;;;;;16.53;7.60;;;6.90;99.90;;;;;;4967622;28;20476;-76
2022/11/28 10:34:11;;;;;;;11.43;8.10;;;6.90;99.90;;;;;;4967437;28;20453;-75
2022/11/28 10:36:50;;;;;;;10.60;7.70;;;7.00;99.90;;;;;;4967284;28;20468;-76
2022/11/28 10:39:18;;;;;;;14.10;8.20;;;7.00;99.90;;;;;;4967594;28;20495;-76
2022/11/28 10:42:10;;;;;;;9.40;7.13;;;7.10;99.90;;;;;;4967212;28;20488;-76
2022/11/28 10:44:49;;;;;;;9.00;6.63;;;7.10;99.90;;;;;;4967991;28;20448;-76
2022/11/28 10:47:26;;;;;;;11.53;7.70;;;7.10;99.90;;;;;;4967630;28;20468;-76
2022/11/28 10:50:02;;;;;;;10.20;7.77;;;7.10;99.90;;;;;;4968403;28;20445;-75
2022/11/28 10:52:37;;;;;;;15.73;8.20;;;7.10;99.90;;;;;;4966872;28;20472;-76
2022/11/28 10:55:22;;;;;;;11.17;7.40;;;7.10;99.90;;;;;;4967866;28;20495;-76
2022/11/28 10:57:58;;;;;;;8.30;7.17;;;7.20;99.90;;;;;;4967514;28;20453;-76
2022/11/28 11:00:25;;;;;;;15.60;8.03;;;7.20;99.90;;;;;;4967628;28;20444;-76
2022/11/28 11:02:53;;;;;;;11.20;8.03;;;7.20;99.90;;;;;;4966680;28;20461;-76
2022/11/28 11:05:24;;;;;;;15.13;8.40;;;7.30;99.90;;;;;;4967675;28;20460;-76
2022/11/28 11:07:53;;;;;;;10.43;7.93;;;7.30;99.90;;;;;;4967875;28;20471;-76
2022/11/28 11:10:26;;;;;;;14.00;8.43;;;7.40;99.90;;;;;;4967591;28;20985;-76
2022/11/28 11:12:53;;;;;;;11.87;7.83;;;7.40;99.90;;;;;;4966761;28;20452;-76
2022/11/28 11:15:23;;;;;;;10.33;7.93;;;7.50;99.90;;;;;;4966929;28;20967;-76
2022/11/28 11:17:51;;;;;;;9.10;6.57;;;7.50;99.90;;;;;;4967408;28;20464;-76
2022/11/28 11:20:39;;;;;;;13.87;9.50;;;7.50;99.90;;;;;;4967120;28;20555;-76
2022/11/28 11:23:16;;;;;;;16.73;10.50;;;7.60;99.90;;;;;;4960396;28;20463;-76
2022/11/28 11:25:51;;;;;;;14.40;9.73;;;7.70;99.90;;;;;;4984565;28;20462;-75
2022/11/28 11:28:29;;;;;;;13.80;9.57;;;7.70;99.90;;;;;;4979474;28;20973;-76
2022/11/28 11:31:00;;;;;;;11.27;8.13;;;7.80;99.90;;;;;;4971896;28;20498;-76
2022/11/28 11:33:33;;;;;;;17.40;7.73;;;7.80;99.90;;;;;;4968922;28;20480;-76
2022/11/28 11:36:02;;;;;;;11.80;7.93;;;7.80;99.90;;;;;;4967399;28;20480;-77
2022/11/28 11:38:32;;;;;;;13.33;9.47;;;7.80;99.90;;;;;;4967514;28;20468;-78
2022/11/28 11:41:19;;;;;;;9.77;7.40;;;7.90;99.90;;;;;;4967094;28;20488;-76
2022/11/28 11:43:46;;;;;;;16.73;8.37;;;7.80;99.90;;;;;;4970402;28;20460;-75
2022/11/28 11:46:15;;;;;;;11.07;7.60;;;7.90;99.90;;;;;;4969951;28;20452;-77
2022/11/28 11:48:43;;;;;;;13.23;7.47;;;8.00;99.90;;;;;;4969986;28;20464;-77
2022/11/28 11:51:22;;;;;;;10.20;7.30;;;8.00;99.90;;;;;;4970295;28;20486;-77
2022/11/28 11:53:59;;;;;;;10.77;7.60;;;8.10;99.90;;;;;;4969729;28;20448;-77
2022/11/28 11:56:30;;;;;;;8.73;7.03;;;8.10;99.90;;;;;;4970428;28;20586;-76
2022/11/28 11:59:01;;;;;;;9.17;7.40;;;8.10;99.90;;;;;;4970424;28;20441;-77
2022/11/28 12:01:30;;;;;;;10.63;7.40;;;8.20;99.90;;;;;;4970260;28;21025;-76
2022/11/28 12:04:00;;;;;;;9.60;7.07;;;8.20;99.90;;;;;;4969487;28;21058;-76
2022/11/28 12:06:32;;;;;;;14.77;8.00;;;8.20;99.90;;;;;;4969993;28;20809;-75
2022/11/28 12:09:08;;;;;;;9.03;7.07;;;8.30;99.90;;;;;;4970216;28;21035;-76
2022/11/28 12:11:40;;;;;;;12.27;7.03;;;8.30;99.90;;;;;;4969494;28;20480;-77
2022/11/28 12:14:27;;;;;;;9.20;6.70;;;8.40;99.90;;;;;;4968957;28;21221;-76
2022/11/28 12:17:07;;;;;;;9.13;7.23;;;8.40;99.90;;;;;;4969309;28;20440;-77
2022/11/28 12:19:44;;;;;;;10.40;7.60;;;8.40;99.90;;;;;;4969673;28;20448;-76
2022/11/28 12:22:23;;;;;;;11.20;7.63;;;8.50;99.90;;;;;;4970022;28;20490;-74
2022/11/28 12:25:00;;;;;;;10.77;8.03;;;8.50;99.90;;;;;;4972058;28;20460;-76
2022/11/28 12:27:43;;;;;;;11.37;7.57;;;8.50;99.90;;;;;;4969414;28;20826;-76
2022/11/28 12:30:24;;;;;;;13.00;7.90;;;8.60;99.90;;;;;;4969903;28;20459;-77
2022/11/28 12:33:01;;;;;;;9.93;7.27;;;8.60;99.90;;;;;;4969109;28;20472;-75
2022/11/28 12:35:38;;;;;;;9.70;7.93;;;8.70;99.90;;;;;;4969406;28;20518;-76
2022/11/28 12:38:13;;;;;;;11.17;7.50;;;8.70;99.90;;;;;;4970648;28;20471;-75
2022/11/28 12:40:58;;;;;;;9.07;7.13;;;8.80;99.90;;;;;;4972949;28;20506;-77
2022/11/28 12:43:37;;;;;;;12.73;7.57;;;8.80;99.90;;;;;;4971368;28;20475;-77
2022/11/28 12:46:12;;;;;;;11.73;8.20;;;8.90;99.90;;;;;;4981279;28;20458;-77
2022/11/28 12:49:00;;;;;;;14.93;10.00;;;8.90;99.90;;;;;;4972093;28;20492;-76
2022/11/28 12:51:36;;;;;;;16.93;11.80;;;9.00;99.90;;;;;;4971810;28;20489;-76
2022/11/28 12:54:26;;;;;;;16.97;11.53;;;9.10;99.90;;;;;;4972717;28;20971;-77
2022/11/28 12:57:03;;;;;;;16.10;11.10;;;9.10;99.90;;;;;;4973390;28;20496;-78
2022/11/28 12:59:39;;;;;;;15.23;11.20;;;9.20;99.90;;;;;;4970539;28;20482;-75
2022/11/28 13:02:27;;;;;;;16.67;10.90;;;9.20;99.90;;;;;;4966764;28;21016;-73
2022/11/28 13:05:19;;;;;;;16.70;11.33;;;9.20;99.90;;;;;;4967787;28;20468;-75
2022/11/28 13:07:58;;;;;;;16.93;10.40;;;9.10;99.90;;;;;;4964433;28;20588;-77
2022/11/28 13:10:29;;;;;;;23.63;15.40;;;9.20;99.90;;;;;;4969271;28;21067;-77
2022/11/28 13:13:01;;;;;;;25.10;15.70;;;9.20;99.90;;;;;;4968862;28;20445;-77
2022/11/28 13:15:46;;;;;;;22.93;13.03;;;9.10;99.90;;;;;;4969865;28;20477;-77
2022/11/28 13:18:25;;;;;;;11.70;8.17;;;9.20;99.90;;;;;;4969684;28;20449;-77
2022/11/28 13:20:59;;;;;;;12.50;8.03;;;9.20;99.90;;;;;;4970334;28;20484;-76
2022/11/28 13:23:30;;;;;;;16.30;8.53;;;9.20;99.90;;;;;;4970264;28;20448;-76
2022/11/28 13:26:05;;;;;;;18.43;8.43;;;9.20;99.90;;;;;;4970916;28;21455;-78
2022/11/28 13:28:38;;;;;;;12.07;9.30;;;9.30;99.90;;;;;;4969249;28;20460;-77
2022/11/28 13:31:12;;;;;;;10.73;8.80;;;9.30;99.90;;;;;;4968987;28;20480;-75
2022/11/28 13:33:50;;;;;;;10.00;8.60;;;9.40;99.90;;;;;;4968970;28;21425;-77
2022/11/28 13:36:26;;;;;;;13.87;8.90;;;9.40;99.90;;;;;;4970322;28;20908;-77
2022/11/28 13:38:59;;;;;;;17.37;10.20;;;9.40;99.90;;;;;;4969490;28;20471;-75
2022/11/28 13:41:36;;;;;;;13.27;9.00;;;9.40;99.90;;;;;;4970825;28;20866;-78
2022/11/28 13:44:14;;;;;;;20.13;10.20;;;9.40;99.90;;;;;;4969418;28;20464;-77
2022/11/28 13:46:43;;;;;;;10.30;8.53;;;9.40;99.90;;;;;;4968104;28;20979;-77
2022/11/28 13:49:20;;;;;;;11.60;8.40;;;9.40;99.90;;;;;;4969701;28;20491;-77
2022/11/28 13:51:47;;;;;;;13.13;8.27;;;9.40;99.90;;;;;;4969427;28;20583;-77
2022/11/28 13:54:46;;;;;;;9.63;6.50;;;9.40;99.90;;;;;;4968830;28;20491;-77
2022/11/28 13:57:27;;;;;;;10.00;7.03;;;9.40;99.90;;;;;;4968805;28;20492;-77
2022/11/28 13:59:58;;;;;;;8.37;6.83;;;9.40;99.90;;;;;;4968394;28;20445;-75
2022/11/28 14:02:35;;;;;;;8.37;7.07;;;9.40;99.90;;;;;;4969390;28;20494;-76
2022/11/28 14:05:02;;;;;;;10.27;7.23;;;9.40;99.90;;;;;;4970441;28;20449;-77
2022/11/28 14:07:31;;;;;;;10.47;7.77;;;9.40;99.90;;;;;;4971297;28;21104;-78
2022/11/28 14:10:31;;;;;;;9.90;6.73;;;9.40;99.90;;;;;;4969761;28;20456;-78
2022/11/28 14:13:25;;;;;;;13.10;8.37;;;9.40;99.90;;;;;;4931213;28;20466;-77
2022/11/28 14:16:05;;;;;;;9.60;7.07;;;9.40;99.90;;;;;;4982156;28;20606;-77
2022/11/28 14:18:43;;;;;;;8.80;7.00;;;9.40;99.90;;;;;;4989304;28;20924;-77
2022/11/28 14:21:22;;;;;;;9.63;7.20;;;9.30;99.90;;;;;;4989718;28;20492;-78
2022/11/28 14:23:56;;;;;;;11.17;7.10;;;9.30;99.90;;;;;;4989549;28;20476;-77
2022/11/28 14:26:27;;;;;;;8.23;6.17;;;9.30;99.90;;;;;;4989884;28;20543;-75
2022/11/28 14:28:54;;;;;;;9.70;7.37;;;9.30;99.90;;;;;;4989897;28;20460;-78
2022/11/28 14:31:27;;;;;;;8.67;6.83;;;9.30;99.90;;;;;;4990143;28;20480;-78
2022/11/28 14:34:00;;;;;;;10.33;7.10;;;9.30;99.90;;;;;;4989502;28;20450;-77
2022/11/28 14:36:29;;;;;;;7.70;6.57;;;9.30;99.90;;;;;;4989998;28;20502;-77
2022/11/28 14:39:11;;;;;;;8.30;6.50;;;9.30;99.90;;;;;;4989936;28;20958;-78
2022/11/28 14:42:11;;;;;;;9.97;7.47;;;9.30;99.90;;;;;;4989152;28;20848;-78
2022/11/28 14:44:49;;;;;;;9.40;6.60;;;9.30;99.90;;;;;;4957203;28;20451;-77
2022/11/28 14:47:18;;;;;;;10.20;7.20;;;9.30;99.90;;;;;;4990059;28;20455;-77
2022/11/28 14:49:46;;;;;;;6.80;5.83;;;9.30;99.90;;;;;;4990217;28;20451;-77
2022/11/28 14:52:25;;;;;;;7.93;6.27;;;9.30;99.90;;;;;;4989780;28;20475;-78
2022/11/28 14:54:53;;;;;;;9.10;6.90;;;9.30;99.90;;;;;;4990167;28;20448;-77
2022/11/28 14:57:24;;;;;;;7.70;5.67;;;9.30;99.90;;;;;;4990240;28;20505;-76
2022/11/28 14:59:51;;;;;;;13.30;6.80;;;9.30;99.90;;;;;;4990354;28;20490;-78
2022/11/28 15:02:57;;;;;;;5.93;5.33;;;9.30;99.90;;;;;;4988449;28;20579;-77
2022/11/28 15:05:47;;;;;;;8.47;6.03;;;9.30;99.90;;;;;;4989856;28;20542;-76
2022/11/28 15:08:34;;;;;;;11.83;8.50;;;9.40;99.90;;;;;;4984253;28;20470;-77
2022/11/28 15:11:16;;;;;;;22.97;13.53;;;9.40;99.90;;;;;;4989509;28;20479;-78
2022/11/28 15:13:58;;;;;;;27.20;14.07;;;9.40;99.90;;;;;;4986413;28;20462;-75
2022/11/28 15:16:29;;;;;;;17.67;11.10;;;9.40;99.90;;;;;;4986381;28;21043;-75
2022/11/28 15:19:01;;;;;;;20.00;10.60;;;9.40;99.90;;;;;;4991866;28;20439;-76
2022/11/28 15:21:32;;;;;;;21.33;11.50;;;9.40;99.90;;;;;;4990867;28;20479;-73
2022/11/28 15:23:58;;;;;;;19.40;12.50;;;9.40;99.90;;;;;;4990079;28;20452;-76
2022/11/28 15:26:28;;;;;;;13.70;9.37;;;9.40;99.90;;;;;;4989920;28;20831;-77
2022/11/28 15:29:09;;;;;;;12.53;8.00;;;9.40;99.90;;;;;;4989885;28;20470;-77
2022/11/28 15:31:36;;;;;;;10.83;6.83;;;9.40;99.90;;;;;;4989472;28;20486;-77
2022/11/28 15:34:03;;;;;;;11.93;7.77;;;9.40;99.90;;;;;;4993880;28;20464;-75
2022/11/28 15:36:31;;;;;;;13.40;8.00;;;9.40;99.90;;;;;;4994874;28;20495;-78
2022/11/28 15:38:58;;;;;;;10.40;7.70;;;9.40;99.90;;;;;;4992087;28;20460;-77
2022/11/28 15:41:27;;;;;;;10.30;7.60;;;9.40;99.90;;;;;;4993911;28;20491;-78
2022/11/28 15:43:55;;;;;;;14.73;8.47;;;9.40;99.90;;;;;;4992146;28;20470;-76
2022/11/28 15:46:30;;;;;;;14.07;8.63;;;9.30;99.90;;;;;;4990039;28;20462;-78
2022/11/28 15:48:56;;;;;;;12.83;8.67;;;9.30;99.90;;;;;;4995028;28;20432;-77
2022/11/28 15:51:29;;;;;;;13.97;8.60;;;9.30;99.90;;;;;;4993424;28;20475;-77
2022/11/28 15:53:58;;;;;;;14.20;8.53;;;9.30;99.90;;;;;;4994629;28;20459;-76
2022/11/28 15:56:25;;;;;;;11.20;8.70;;;9.20;99.90;;;;;;4993686;28;20495;-77
2022/11/28 15:58:53;;;;;;;12.70;9.17;;;9.20;99.90;;;;;;4992274;28;20456;-77
2022/11/28 16:01:21;;;;;;;19.00;7.93;;;9.20;99.90;;;;;;4991437;28;20502;-76
2022/11/28 16:03:53;;;;;;;12.07;7.70;;;9.20;99.90;;;;;;4992091;28;20455;-78
2022/11/28 16:06:22;;;;;;;19.67;12.87;;;9.20;99.90;;;;;;4988534;28;20838;-73
2022/11/28 16:08:52;;;;;;;18.57;10.80;;;9.10;99.90;;;;;;4990338;28;20464;-77
2022/11/28 16:11:23;;;;;;;16.77;10.87;;;9.10;99.90;;;;;;4993358;28;20471;-78
2022/11/28 16:13:51;;;;;;;13.50;9.53;;;9.10;99.90;;;;;;4993888;28;20459;-76
2022/11/28 16:16:20;;;;;;;18.47;9.93;;;9.10;99.90;;;;;;4992948;28;20518;-79
2022/11/28 16:18:55;;;;;;;17.37;9.10;;;9.10;99.90;;;;;;4993831;28;20455;-78
2022/11/28 16:21:26;;;;;;;11.93;8.70;;;9.10;99.90;;;;;;4980109;28;20484;-78
2022/11/28 16:23:52;;;;;;;15.30;8.80;;;9.10;99.90;;;;;;4973294;28;20436;-77
2022/11/28 16:26:31;;;;;;;11.90;8.30;;;9.00;99.90;;;;;;4973653;28;20462;-79
2022/11/28 16:29:02;;;;;;;26.50;17.20;;;9.00;99.90;;;;;;4972737;28;20460;-78
2022/11/28 16:31:29;;;;;;;22.13;16.53;;;9.00;99.90;;;;;;4972481;28;20518;-77
2022/11/28 16:33:56;;;;;;;24.10;15.13;;;9.00;99.90;;;;;;4971648;28;20942;-78
2022/11/28 16:36:26;;;;;;;21.60;16.57;;;9.00;99.90;;;;;;4971679;28;20587;-78
2022/11/28 16:39:03;;;;;;;26.13;17.10;;;9.00;99.90;;;;;;4971371;28;20947;-75
2022/11/28 16:41:31;;;;;;;21.83;16.20;;;9.00;99.90;;;;;;4971529;28;20476;-78
2022/11/28 16:44:01;;;;;;;30.50;21.57;;;9.00;99.90;;;;;;4971216;28;20467;-78
2022/11/28 16:46:34;;;;;;;22.13;15.90;;;9.00;99.90;;;;;;4972464;28;20483;-78
2022/11/28 16:49:03;;;;;;;16.07;11.77;;;9.00;99.90;;;;;;4970323;28;20467;-76
2022/11/28 16:51:38;;;;;;;17.90;11.50;;;9.00;99.90;;;;;;4966962;28;20488;-76
2022/11/28 16:54:30;;;;;;;14.53;10.13;;;9.00;99.90;;;;;;4967754;28;20453;-75
2022/11/28 16:57:13;;;;;;;14.90;10.87;;;9.10;99.90;;;;;;4967418;28;20492;-75
2022/11/28 16:59:40;;;;;;;16.30;12.73;;;9.00;99.90;;;;;;4967849;28;20968;-76
2022/11/28 17:02:14;;;;;;;22.57;13.20;;;9.00;99.90;;;;;;4971912;28;20488;-76
2022/11/28 17:04:41;;;;;;;19.00;13.10;;;9.00;99.90;;;;;;4986549;28;20964;-78
2022/11/28 17:07:12;;;;;;;19.27;12.80;;;8.90;99.90;;;;;;4990817;28;20463;-77
2022/11/28 17:09:39;;;;;;;16.00;12.03;;;8.90;99.90;;;;;;4990236;28;20459;-78
2022/11/28 17:12:12;;;;;;;18.57;10.70;;;8.90;99.90;;;;;;4990316;28;20571;-76
2022/11/28 17:14:40;;;;;;;16.90;12.37;;;8.80;99.90;;;;;;4991248;28;20974;-78
2022/11/28 17:17:13;;;;;;;14.47;11.57;;;8.70;99.90;;;;;;4990853;28;20495;-77
2022/11/28 17:19:39;;;;;;;45.57;29.43;;;8.70;99.90;;;;;;4991763;28;20518;-78
2022/11/28 17:22:07;;;;;;;25.47;18.53;;;8.70;99.90;;;;;;4970124;28;20481;-78
2022/11/28 17:24:35;;;;;;;22.00;13.70;;;8.70;99.90;;;;;;4970962;28;20507;-77
2022/11/28 17:27:06;;;;;;;19.23;13.67;;;8.70;99.90;;;;;;4970266;28;20980;-76
2022/11/28 17:29:33;;;;;;;20.90;14.57;;;8.70;99.90;;;;;;4969759;28;20503;-77
2022/11/28 17:32:02;;;;;;;16.70;13.10;;;8.60;99.90;;;;;;4966969;28;20483;-77
2022/11/28 17:34:30;;;;;;;17.80;12.67;;;8.60;99.90;;;;;;4968672;28;20491;-77
2022/11/28 17:36:58;;;;;;;28.43;18.60;;;8.70;99.90;;;;;;4969647;28;20495;-77
2022/11/28 17:39:26;;;;;;;29.40;21.40;;;8.70;99.90;;;;;;4968647;28;20584;-78
2022/11/28 17:41:53;;;;;;;23.07;14.07;;;8.60;99.90;;;;;;4968988;28;20831;-78
2022/11/28 17:44:21;;;;;;;20.03;14.20;;;8.60;99.90;;;;;;4969199;28;20460;-77
2022/11/28 17:46:49;;;;;;;20.10;15.37;;;8.60;99.90;;;;;;4967437;28;20845;-74
2022/11/28 17:49:18;;;;;;;16.30;13.03;;;8.60;99.90;;;;;;4969550;28;20463;-80
2022/11/28 17:51:45;;;;;;;14.43;10.23;;;8.60;99.90;;;;;;4986979;28;20477;-78
2022/11/28 17:54:15;;;;;;;12.60;9.27;;;8.60;99.90;;;;;;4978338;28;20452;-76
2022/11/28 17:56:42;;;;;;;15.87;10.73;;;8.60;99.90;;;;;;4970368;28;21317;-76
2022/11/28 17:59:09;;;;;;;13.83;10.53;;;8.60;99.90;;;;;;4975893;28;20460;-76
2022/11/28 18:01:36;;;;;;;13.30;11.37;;;8.60;99.90;;;;;;4967821;28;20596;-78
2022/11/28 18:04:03;;;;;;;12.23;10.60;;;8.50;99.90;;;;;;4969162;28;20463;-78
2022/11/28 18:06:32;;;;;;;13.30;10.20;;;8.50;99.90;;;;;;4970312;28;20456;-78
2022/11/28 18:09:00;;;;;;;13.70;10.77;;;8.50;99.90;;;;;;4970221;28;20488;-78
2022/11/28 18:11:28;;;;;;;11.87;8.40;;;8.50;99.90;;;;;;4971608;28;20465;-78